sensor_id;sensor_type;location;lat;lon;timestamp;temperature;humidity
11894;DHT22;6006;49.696;8.662;2023-08-24T00:01:36;17.40;99.90
11894;DHT22;6006;49.696;8.662;2023-08-24T00:04:03;17.30;99.90
11894;DHT22;6006;49.696;8.662;2023-08-24T00:06:30;17.30;99.90
11894;DHT22;6006;49.696;8.662;2023-08-24T00:08:57;17.30;99.90
11894;DHT22;6006;49.696;8.662;2023-08-24T00:11:25;17.30;99.90
11894;DHT22;6006;49.696;8.662;2023-08-24T00:13:53;17.30;99.90
11894;DHT22;6006;49.696;8.662;2023-08-24T00:16:20;17.30;99.90
11894;DHT22;6006;49.696;8.662;2023-08-24T00:18:47;17.20;99.90
11894;DHT22;6006;49.696;8.662;2023-08-24T00:21:14;17.20;99.90
11894;DHT22;6006;49.696;8.662;2023-08-24T00:23:42;17.20;99.90
11894;DHT22;6006;49.696;8.662;2023-08-24T00:26:09;17.20;99.90
11894;DHT22;6006;49.696;8.662;2023-08-24T00:28:36;17.20;99.90
11894;DHT22;6006;49.696;8.662;2023-08-24T00:31:04;17.10;99.90
11894;DHT22;6006;49.696;8.662;2023-08-24T00:33:32;17.10;99.90
11894;DHT22;6006;49.696;8.662;2023-08-24T00:36:02;17.00;99.90
11894;DHT22;6006;49.696;8.662;2023-08-24T00:38:29;17.00;99.90
11894;DHT22;6006;49.696;8.662;2023-08-24T00:40:57;17.00;99.90
11894;DHT22;6006;49.696;8.662;2023-08-24T00:43:24;17.00;99.90
11894;DHT22;6006;49.696;8.662;2023-08-24T00:45:52;17.00;99.90
11894;DHT22;6006;49.696;8.662;2023-08-24T00:48:21;16.90;99.90
11894;DHT22;6006;49.696;8.662;2023-08-24T00:50:51;16.90;99.90
11894;DHT22;6006;49.696;8.662;2023-08-24T00:53:18;16.90;99.90
11894;DHT22;6006;49.696;8.662;2023-08-24T00:55:46;17.00;99.90
11894;DHT22;6006;49.696;8.662;2023-08-24T00:58:14;16.90;99.90
11894;DHT22;6006;49.696;8.662;2023-08-24T01:00:41;16.90;99.90
11894;DHT22;6006;49.696;8.662;2023-08-24T01:03:08;16.90;99.90
11894;DHT22;6006;49.696;8.662;2023-08-24T01:05:36;16.90;99.90
11894;DHT22;6006;49.696;8.662;2023-08-24T01:08:04;16.90;99.90
11894;DHT22;6006;49.696;8.662;2023-08-24T01:10:38;16.80;99.90
11894;DHT22;6006;49.696;8.662;2023-08-24T01:13:08;16.80;99.90
11894;DHT22;6006;49.696;8.662;2023-08-24T01:15:39;16.90;99.90
11894;DHT22;6006;49.696;8.662;2023-08-24T01:18:13;16.90;99.90
11894;DHT22;6006;49.696;8.662;2023-08-24T01:20:42;16.90;99.90
11894;DHT22;6006;49.696;8.662;2023-08-24T01:23:22;16.90;99.90
11894;DHT22;6006;49.696;8.662;2023-08-24T01:25:53;16.90;99.90
11894;DHT22;6006;49.696;8.662;2023-08-24T01:28:22;16.90;99.90
11894;DHT22;6006;49.696;8.662;2023-08-24T01:30:49;16.90;99.90
11894;DHT22;6006;49.696;8.662;2023-08-24T01:33:16;16.90;99.90
11894;DHT22;6006;49.696;8.662;2023-08-24T01:35:43;16.90;99.90
11894;DHT22;6006;49.696;8.662;2023-08-24T01:38:10;16.90;99.90
11894;DHT22;6006;49.696;8.662;2023-08-24T01:40:47;16.90;99.90
11894;DHT22;6006;49.696;8.662;2023-08-24T01:43:16;16.90;99.90
11894;DHT22;6006;49.696;8.662;2023-08-24T01:45:46;16.90;99.90
11894;DHT22;6006;49.696;8.662;2023-08-24T01:48:14;16.80;99.90
11894;DHT22;6006;49.696;8.662;2023-08-24T01:50:42;16.80;99.90
11894;DHT22;6006;49.696;8.662;2023-08-24T01:53:09;16.80;99.90
11894;DHT22;6006;49.696;8.662;2023-08-24T01:55:36;16.70;99.90
11894;DHT22;6006;49.696;8.662;2023-08-24T01:58:03;16.70;99.90
11894;DHT22;6006;49.696;8.662;2023-08-24T02:00:30;16.70;99.90
11894;DHT22;6006;49.696;8.662;2023-08-24T02:02:58;16.60;99.90
11894;DHT22;6006;49.696;8.662;2023-08-24T02:05:25;16.50;99.90
11894;DHT22;6006;49.696;8.662;2023-08-24T02:07:54;16.50;99.90
11894;DHT22;6006;49.696;8.662;2023-08-24T02:10:22;16.40;99.90
11894;DHT22;6006;49.696;8.662;2023-08-24T02:12:49;16.40;99.90
11894;DHT22;6006;49.696;8.662;2023-08-24T02:15:16;16.40;99.90
11894;DHT22;6006;49.696;8.662;2023-08-24T02:17:43;16.30;99.90
11894;DHT22;6006;49.696;8.662;2023-08-24T02:20:12;16.20;99.90
11894;DHT22;6006;49.696;8.662;2023-08-24T02:22:39;16.20;99.90
11894;DHT22;6006;49.696;8.662;2023-08-24T02:25:07;16.10;99.90
11894;DHT22;6006;49.696;8.662;2023-08-24T02:27:34;16.10;99.90
11894;DHT22;6006;49.696;8.662;2023-08-24T02:30:01;16.20;99.90
11894;DHT22;6006;49.696;8.662;2023-08-24T02:32:29;16.20;99.90
11894;DHT22;6006;49.696;8.662;2023-08-24T02:34:57;16.20;99.90
11894;DHT22;6006;49.696;8.662;2023-08-24T02:37:25;16.20;99.90
11894;DHT22;6006;49.696;8.662;2023-08-24T02:39:52;16.20;99.90
11894;DHT22;6006;49.696;8.662;2023-08-24T02:42:19;16.30;99.90
11894;DHT22;6006;49.696;8.662;2023-08-24T02:44:46;16.30;99.90
11894;DHT22;6006;49.696;8.662;2023-08-24T02:47:13;16.30;99.90
11894;DHT22;6006;49.696;8.662;2023-08-24T02:49:40;16.30;99.90
11894;DHT22;6006;49.696;8.662;2023-08-24T02:52:07;16.30;99.90
11894;DHT22;6006;49.696;8.662;2023-08-24T02:54:35;16.30;99.90
11894;DHT22;6006;49.696;8.662;2023-08-24T02:57:02;16.30;99.90
11894;DHT22;6006;49.696;8.662;2023-08-24T02:59:29;16.30;99.90
11894;DHT22;6006;49.696;8.662;2023-08-24T03:01:56;16.30;99.90
11894;DHT22;6006;49.696;8.662;2023-08-24T03:04:23;16.20;99.90
11894;DHT22;6006;49.696;8.662;2023-08-24T03:06:50;16.20;99.90
11894;DHT22;6006;49.696;8.662;2023-08-24T03:09:17;16.20;99.90
11894;DHT22;6006;49.696;8.662;2023-08-24T03:11:45;16.30;99.90
11894;DHT22;6006;49.696;8.662;2023-08-24T03:14:12;16.30;99.90
11894;DHT22;6006;49.696;8.662;2023-08-24T03:16:40;16.40;99.90
11894;DHT22;6006;49.696;8.662;2023-08-24T03:19:06;16.40;99.90
11894;DHT22;6006;49.696;8.662;2023-08-24T03:21:33;16.40;99.90
11894;DHT22;6006;49.696;8.662;2023-08-24T03:24:00;16.50;99.90
11894;DHT22;6006;49.696;8.662;2023-08-24T03:26:30;16.50;99.90
11894;DHT22;6006;49.696;8.662;2023-08-24T03:28:58;16.60;99.90
11894;DHT22;6006;49.696;8.662;2023-08-24T03:31:25;16.60;99.90
11894;DHT22;6006;49.696;8.662;2023-08-24T03:33:52;16.70;99.90
11894;DHT22;6006;49.696;8.662;2023-08-24T03:36:19;16.80;99.90
11894;DHT22;6006;49.696;8.662;2023-08-24T03:38:46;16.80;99.90
11894;DHT22;6006;49.696;8.662;2023-08-24T03:41:13;16.90;99.90
11894;DHT22;6006;49.696;8.662;2023-08-24T03:43:40;17.00;99.90
11894;DHT22;6006;49.696;8.662;2023-08-24T03:46:08;17.10;99.90
11894;DHT22;6006;49.696;8.662;2023-08-24T03:48:35;17.20;99.90
11894;DHT22;6006;49.696;8.662;2023-08-24T03:51:02;17.20;99.90
11894;DHT22;6006;49.696;8.662;2023-08-24T03:53:29;17.20;99.90
11894;DHT22;6006;49.696;8.662;2023-08-24T03:55:58;17.30;99.90
11894;DHT22;6006;49.696;8.662;2023-08-24T03:58:25;17.20;99.90
11894;DHT22;6006;49.696;8.662;2023-08-24T04:00:51;17.20;99.90
11894;DHT22;6006;49.696;8.662;2023-08-24T04:03:21;17.20;99.90
11894;DHT22;6006;49.696;8.662;2023-08-24T04:05:47;17.10;99.90
11894;DHT22;6006;49.696;8.662;2023-08-24T04:08:14;17.10;99.90
11894;DHT22;6006;49.696;8.662;2023-08-24T04:10:41;17.20;99.90
11894;DHT22;6006;49.696;8.662;2023-08-24T04:13:08;17.20;99.90
11894;DHT22;6006;49.696;8.662;2023-08-24T04:15:35;17.30;99.90
11894;DHT22;6006;49.696;8.662;2023-08-24T04:18:02;17.30;99.90
11894;DHT22;6006;49.696;8.662;2023-08-24T04:20:31;17.40;99.90
11894;DHT22;6006;49.696;8.662;2023-08-24T04:22:58;17.40;99.90
11894;DHT22;6006;49.696;8.662;2023-08-24T04:25:25;17.40;99.90
11894;DHT22;6006;49.696;8.662;2023-08-24T04:27:52;17.40;99.90
11894;DHT22;6006;49.696;8.662;2023-08-24T04:30:19;17.40;99.90
11894;DHT22;6006;49.696;8.662;2023-08-24T04:32:47;17.40;99.90
11894;DHT22;6006;49.696;8.662;2023-08-24T04:35:14;17.40;99.90
11894;DHT22;6006;49.696;8.662;2023-08-24T04:37:43;17.40;99.90
11894;DHT22;6006;49.696;8.662;2023-08-24T04:40:10;17.40;99.90
11894;DHT22;6006;49.696;8.662;2023-08-24T04:42:37;17.40;99.90
11894;DHT22;6006;49.696;8.662;2023-08-24T04:45:05;17.40;99.90
11894;DHT22;6006;49.696;8.662;2023-08-24T04:47:32;17.30;99.90
11894;DHT22;6006;49.696;8.662;2023-08-24T04:49:59;17.40;99.90
11894;DHT22;6006;49.696;8.662;2023-08-24T04:52:26;17.40;99.90
11894;DHT22;6006;49.696;8.662;2023-08-24T04:54:55;17.40;99.90
11894;DHT22;6006;49.696;8.662;2023-08-24T04:57:22;17.40;99.90
11894;DHT22;6006;49.696;8.662;2023-08-24T04:59:49;17.50;99.90
11894;DHT22;6006;49.696;8.662;2023-08-24T05:02:16;17.50;99.90
11894;DHT22;6006;49.696;8.662;2023-08-24T05:04:43;17.50;99.90
11894;DHT22;6006;49.696;8.662;2023-08-24T05:07:09;17.50;99.90
11894;DHT22;6006;49.696;8.662;2023-08-24T05:09:36;17.50;99.90
11894;DHT22;6006;49.696;8.662;2023-08-24T05:12:05;17.60;99.90
11894;DHT22;6006;49.696;8.662;2023-08-24T05:14:32;17.60;99.90
11894;DHT22;6006;49.696;8.662;2023-08-24T05:17:00;17.60;99.90
11894;DHT22;6006;49.696;8.662;2023-08-24T05:19:27;17.60;99.90
11894;DHT22;6006;49.696;8.662;2023-08-24T05:21:53;17.70;99.90
11894;DHT22;6006;49.696;8.662;2023-08-24T05:24:20;17.70;99.90
11894;DHT22;6006;49.696;8.662;2023-08-24T05:26:47;17.70;99.90
11894;DHT22;6006;49.696;8.662;2023-08-24T05:29:15;17.80;99.90
11894;DHT22;6006;49.696;8.662;2023-08-24T05:31:42;17.80;99.90
11894;DHT22;6006;49.696;8.662;2023-08-24T05:34:09;17.80;99.90
11894;DHT22;6006;49.696;8.662;2023-08-24T05:36:36;17.90;99.90
11894;DHT22;6006;49.696;8.662;2023-08-24T05:39:03;18.00;99.90
11894;DHT22;6006;49.696;8.662;2023-08-24T05:41:30;18.00;99.90
11894;DHT22;6006;49.696;8.662;2023-08-24T05:43:57;18.10;99.90
11894;DHT22;6006;49.696;8.662;2023-08-24T05:46:25;18.20;99.90
11894;DHT22;6006;49.696;8.662;2023-08-24T05:48:52;18.30;99.90
11894;DHT22;6006;49.696;8.662;2023-08-24T05:51:19;18.30;99.90
11894;DHT22;6006;49.696;8.662;2023-08-24T05:53:47;18.40;99.90
11894;DHT22;6006;49.696;8.662;2023-08-24T05:56:14;18.40;99.90
11894;DHT22;6006;49.696;8.662;2023-08-24T05:58:40;18.60;99.90
11894;DHT22;6006;49.696;8.662;2023-08-24T06:01:07;18.70;99.90
11894;DHT22;6006;49.696;8.662;2023-08-24T06:03:36;18.80;99.90
11894;DHT22;6006;49.696;8.662;2023-08-24T06:06:03;19.00;99.90
11894;DHT22;6006;49.696;8.662;2023-08-24T06:08:30;19.20;99.90
11894;DHT22;6006;49.696;8.662;2023-08-24T06:10:58;19.40;99.90
11894;DHT22;6006;49.696;8.662;2023-08-24T06:13:25;19.60;99.90
11894;DHT22;6006;49.696;8.662;2023-08-24T06:15:52;19.70;99.90
11894;DHT22;6006;49.696;8.662;2023-08-24T06:18:19;19.80;99.90
11894;DHT22;6006;49.696;8.662;2023-08-24T06:20:48;19.90;99.90
11894;DHT22;6006;49.696;8.662;2023-08-24T06:23:16;20.00;99.90
11894;DHT22;6006;49.696;8.662;2023-08-24T06:25:43;20.10;99.90
11894;DHT22;6006;49.696;8.662;2023-08-24T06:28:10;20.10;99.90
11894;DHT22;6006;49.696;8.662;2023-08-24T06:30:38;20.20;99.90
11894;DHT22;6006;49.696;8.662;2023-08-24T06:33:05;20.30;99.90
11894;DHT22;6006;49.696;8.662;2023-08-24T06:35:32;20.40;99.90
11894;DHT22;6006;49.696;8.662;2023-08-24T06:38:01;20.60;99.90
11894;DHT22;6006;49.696;8.662;2023-08-24T06:40:28;20.70;1.00
11894;DHT22;6006;49.696;8.662;2023-08-24T06:42:56;20.80;1.00
11894;DHT22;6006;49.696;8.662;2023-08-24T06:45:23;20.90;1.00
11894;DHT22;6006;49.696;8.662;2023-08-24T06:47:50;21.00;1.00
11894;DHT22;6006;49.696;8.662;2023-08-24T06:50:18;21.10;99.90
11894;DHT22;6006;49.696;8.662;2023-08-24T06:52:46;21.20;99.90
11894;DHT22;6006;49.696;8.662;2023-08-24T06:55:14;21.30;99.90
11894;DHT22;6006;49.696;8.662;2023-08-24T06:57:41;21.40;1.00
11894;DHT22;6006;49.696;8.662;2023-08-24T07:00:09;21.50;1.00
11894;DHT22;6006;49.696;8.662;2023-08-24T07:02:38;21.50;99.90
11894;DHT22;6006;49.696;8.662;2023-08-24T07:05:06;21.60;1.00
11894;DHT22;6006;49.696;8.662;2023-08-24T07:07:34;21.60;1.00
11894;DHT22;6006;49.696;8.662;2023-08-24T07:10:01;21.60;1.00
11894;DHT22;6006;49.696;8.662;2023-08-24T07:12:30;21.60;1.00
11894;DHT22;6006;49.696;8.662;2023-08-24T07:14:57;21.60;99.90
11894;DHT22;6006;49.696;8.662;2023-08-24T07:17:24;21.70;65.10
11894;DHT22;6006;49.696;8.662;2023-08-24T07:19:51;22.20;1.00
11894;DHT22;6006;49.696;8.662;2023-08-24T07:22:18;22.60;99.90
11894;DHT22;6006;49.696;8.662;2023-08-24T07:24:45;23.00;99.90
11894;DHT22;6006;49.696;8.662;2023-08-24T07:27:12;23.40;1.00
11894;DHT22;6006;49.696;8.662;2023-08-24T07:29:40;23.50;1.00
11894;DHT22;6006;49.696;8.662;2023-08-24T07:32:07;23.80;1.00
11894;DHT22;6006;49.696;8.662;2023-08-24T07:34:34;23.90;1.00
11894;DHT22;6006;49.696;8.662;2023-08-24T07:37:01;23.90;1.00
11894;DHT22;6006;49.696;8.662;2023-08-24T07:39:28;23.80;1.00
11894;DHT22;6006;49.696;8.662;2023-08-24T07:41:55;23.90;1.00
11894;DHT22;6006;49.696;8.662;2023-08-24T07:44:22;24.10;1.00
11894;DHT22;6006;49.696;8.662;2023-08-24T07:46:50;23.90;1.00
11894;DHT22;6006;49.696;8.662;2023-08-24T07:49:17;23.90;1.00
11894;DHT22;6006;49.696;8.662;2023-08-24T07:51:44;24.10;1.00
11894;DHT22;6006;49.696;8.662;2023-08-24T07:54:13;24.30;1.00
11894;DHT22;6006;49.696;8.662;2023-08-24T07:56:40;24.30;1.00
11894;DHT22;6006;49.696;8.662;2023-08-24T07:59:07;24.50;1.00
11894;DHT22;6006;49.696;8.662;2023-08-24T08:01:34;24.60;1.00
11894;DHT22;6006;49.696;8.662;2023-08-24T08:04:02;24.70;1.00
11894;DHT22;6006;49.696;8.662;2023-08-24T08:06:29;24.60;1.00
11894;DHT22;6006;49.696;8.662;2023-08-24T08:08:56;24.50;1.00
11894;DHT22;6006;49.696;8.662;2023-08-24T08:11:23;24.30;1.00
11894;DHT22;6006;49.696;8.662;2023-08-24T08:13:50;24.30;1.00
11894;DHT22;6006;49.696;8.662;2023-08-24T08:16:17;24.20;1.00
11894;DHT22;6006;49.696;8.662;2023-08-24T08:18:44;24.30;1.00
11894;DHT22;6006;49.696;8.662;2023-08-24T08:21:15;24.30;6.70
11894;DHT22;6006;49.696;8.662;2023-08-24T08:23:43;24.30;99.90
11894;DHT22;6006;49.696;8.662;2023-08-24T08:26:11;24.30;99.90
11894;DHT22;6006;49.696;8.662;2023-08-24T08:28:42;24.50;57.20
11894;DHT22;6006;49.696;8.662;2023-08-24T08:31:09;24.60;1.00
11894;DHT22;6006;49.696;8.662;2023-08-24T08:33:36;24.90;1.00
11894;DHT22;6006;49.696;8.662;2023-08-24T08:36:04;25.10;1.00
11894;DHT22;6006;49.696;8.662;2023-08-24T08:38:32;25.30;99.90
11894;DHT22;6006;49.696;8.662;2023-08-24T08:41:02;25.40;1.00
11894;DHT22;6006;49.696;8.662;2023-08-24T08:43:30;25.30;1.00
11894;DHT22;6006;49.696;8.662;2023-08-24T08:45:58;25.30;1.00
11894;DHT22;6006;49.696;8.662;2023-08-24T08:48:25;25.10;99.90
11894;DHT22;6006;49.696;8.662;2023-08-24T08:50:53;25.10;99.90
11894;DHT22;6006;49.696;8.662;2023-08-24T08:53:22;25.10;1.00
11894;DHT22;6006;49.696;8.662;2023-08-24T08:55:53;25.10;99.90
11894;DHT22;6006;49.696;8.662;2023-08-24T08:58:21;25.20;99.90
11894;DHT22;6006;49.696;8.662;2023-08-24T09:00:49;25.50;99.90
11894;DHT22;6006;49.696;8.662;2023-08-24T09:03:18;26.00;1.00
11894;DHT22;6006;49.696;8.662;2023-08-24T09:05:45;26.60;99.90
11894;DHT22;6006;49.696;8.662;2023-08-24T09:08:14;26.80;99.90
11894;DHT22;6006;49.696;8.662;2023-08-24T09:10:42;27.70;99.90
11894;DHT22;6006;49.696;8.662;2023-08-24T09:13:11;28.10;99.90
11894;DHT22;6006;49.696;8.662;2023-08-24T09:15:38;28.30;99.90
11894;DHT22;6006;49.696;8.662;2023-08-24T09:18:05;28.60;99.90
11894;DHT22;6006;49.696;8.662;2023-08-24T09:20:33;28.90;99.90
11894;DHT22;6006;49.696;8.662;2023-08-24T09:23:00;29.50;99.90
11894;DHT22;6006;49.696;8.662;2023-08-24T09:25:27;29.90;99.90
11894;DHT22;6006;49.696;8.662;2023-08-24T09:27:57;30.30;99.90
11894;DHT22;6006;49.696;8.662;2023-08-24T09:30:30;30.40;99.90
11894;DHT22;6006;49.696;8.662;2023-08-24T09:33:02;30.80;99.90
11894;DHT22;6006;49.696;8.662;2023-08-24T09:35:35;31.10;99.90
11894;DHT22;6006;49.696;8.662;2023-08-24T09:38:15;31.50;99.90
11894;DHT22;6006;49.696;8.662;2023-08-24T09:40:45;31.60;99.90
11894;DHT22;6006;49.696;8.662;2023-08-24T09:43:13;31.70;99.90
11894;DHT22;6006;49.696;8.662;2023-08-24T09:45:49;31.60;99.90
11894;DHT22;6006;49.696;8.662;2023-08-24T09:48:16;31.50;99.90
11894;DHT22;6006;49.696;8.662;2023-08-24T09:50:44;32.00;99.90
11894;DHT22;6006;49.696;8.662;2023-08-24T09:53:16;32.20;99.90
11894;DHT22;6006;49.696;8.662;2023-08-24T09:55:46;32.20;99.90
11894;DHT22;6006;49.696;8.662;2023-08-24T09:58:15;31.60;99.90
11894;DHT22;6006;49.696;8.662;2023-08-24T10:00:45;31.30;99.90
11894;DHT22;6006;49.696;8.662;2023-08-24T10:03:16;30.90;99.90
11894;DHT22;6006;49.696;8.662;2023-08-24T10:05:47;30.60;99.90
11894;DHT22;6006;49.696;8.662;2023-08-24T10:08:20;31.00;99.90
11894;DHT22;6006;49.696;8.662;2023-08-24T10:10:47;31.00;99.90
11894;DHT22;6006;49.696;8.662;2023-08-24T10:13:20;31.10;99.90
11894;DHT22;6006;49.696;8.662;2023-08-24T10:15:49;30.80;99.90
11894;DHT22;6006;49.696;8.662;2023-08-24T10:18:18;31.10;99.90
11894;DHT22;6006;49.696;8.662;2023-08-24T10:20:47;31.50;99.90
11894;DHT22;6006;49.696;8.662;2023-08-24T10:23:15;31.70;99.90
11894;DHT22;6006;49.696;8.662;2023-08-24T10:25:44;32.00;99.90
11894;DHT22;6006;49.696;8.662;2023-08-24T10:28:14;32.30;99.90
11894;DHT22;6006;49.696;8.662;2023-08-24T10:30:41;32.70;99.90
11894;DHT22;6006;49.696;8.662;2023-08-24T10:33:10;32.10;99.90
11894;DHT22;6006;49.696;8.662;2023-08-24T10:35:40;31.80;99.90
11894;DHT22;6006;49.696;8.662;2023-08-24T10:38:07;32.40;99.90
11894;DHT22;6006;49.696;8.662;2023-08-24T10:40:35;33.60;99.90
11894;DHT22;6006;49.696;8.662;2023-08-24T10:43:03;34.10;99.90
11894;DHT22;6006;49.696;8.662;2023-08-24T10:45:55;32.50;99.90
11894;DHT22;6006;49.696;8.662;2023-08-24T10:48:23;33.30;99.90
11894;DHT22;6006;49.696;8.662;2023-08-24T10:51:22;33.30;99.90
11894;DHT22;6006;49.696;8.662;2023-08-24T10:53:53;34.50;99.90
11894;DHT22;6006;49.696;8.662;2023-08-24T10:56:21;35.00;99.90
11894;DHT22;6006;49.696;8.662;2023-08-24T10:59:13;34.80;99.90
11894;DHT22;6006;49.696;8.662;2023-08-24T11:01:40;34.30;99.90
11894;DHT22;6006;49.696;8.662;2023-08-24T11:04:08;34.20;99.90
11894;DHT22;6006;49.696;8.662;2023-08-24T11:06:50;34.20;99.90
11894;DHT22;6006;49.696;8.662;2023-08-24T11:09:17;35.00;99.90
11894;DHT22;6006;49.696;8.662;2023-08-24T11:11:55;34.30;99.90
11894;DHT22;6006;49.696;8.662;2023-08-24T11:14:24;34.40;99.90
11894;DHT22;6006;49.696;8.662;2023-08-24T11:16:52;33.20;99.90
11894;DHT22;6006;49.696;8.662;2023-08-24T11:19:20;34.20;99.90
11894;DHT22;6006;49.696;8.662;2023-08-24T11:21:47;34.40;99.90
11894;DHT22;6006;49.696;8.662;2023-08-24T11:24:17;34.00;99.90
11894;DHT22;6006;49.696;8.662;2023-08-24T11:26:45;34.80;99.90
11894;DHT22;6006;49.696;8.662;2023-08-24T11:29:12;34.10;99.90
11894;DHT22;6006;49.696;8.662;2023-08-24T11:31:41;34.30;99.90
11894;DHT22;6006;49.696;8.662;2023-08-24T11:34:08;33.90;99.90
11894;DHT22;6006;49.696;8.662;2023-08-24T11:36:52;33.30;99.90
11894;DHT22;6006;49.696;8.662;2023-08-24T11:39:21;33.90;99.90
11894;DHT22;6006;49.696;8.662;2023-08-24T11:41:59;33.10;99.90
11894;DHT22;6006;49.696;8.662;2023-08-24T11:44:26;33.00;99.90
11894;DHT22;6006;49.696;8.662;2023-08-24T11:46:56;33.50;99.90
11894;DHT22;6006;49.696;8.662;2023-08-24T11:49:23;34.00;99.90
11894;DHT22;6006;49.696;8.662;2023-08-24T11:51:50;33.90;99.90
11894;DHT22;6006;49.696;8.662;2023-08-24T11:54:19;34.10;99.90
11894;DHT22;6006;49.696;8.662;2023-08-24T11:56:47;34.50;99.90
11894;DHT22;6006;49.696;8.662;2023-08-24T11:59:14;34.20;99.90
11894;DHT22;6006;49.696;8.662;2023-08-24T12:01:42;34.60;99.90
11894;DHT22;6006;49.696;8.662;2023-08-24T12:04:10;34.70;99.90
11894;DHT22;6006;49.696;8.662;2023-08-24T12:06:38;34.50;99.90
11894;DHT22;6006;49.696;8.662;2023-08-24T12:09:06;34.30;99.90
11894;DHT22;6006;49.696;8.662;2023-08-24T12:11:35;34.00;99.90
11894;DHT22;6006;49.696;8.662;2023-08-24T12:14:03;34.10;99.90
11894;DHT22;6006;49.696;8.662;2023-08-24T12:16:33;34.20;99.90
11894;DHT22;6006;49.696;8.662;2023-08-24T12:19:00;34.30;99.90
11894;DHT22;6006;49.696;8.662;2023-08-24T12:21:30;33.80;99.90
11894;DHT22;6006;49.696;8.662;2023-08-24T12:23:59;33.60;99.90
11894;DHT22;6006;49.696;8.662;2023-08-24T12:26:26;34.10;99.90
11894;DHT22;6006;49.696;8.662;2023-08-24T12:28:55;33.60;99.90
11894;DHT22;6006;49.696;8.662;2023-08-24T12:31:26;33.20;99.90
11894;DHT22;6006;49.696;8.662;2023-08-24T12:34:00;33.00;99.90
11894;DHT22;6006;49.696;8.662;2023-08-24T12:36:27;33.40;99.90
11894;DHT22;6006;49.696;8.662;2023-08-24T12:38:56;33.80;99.90
11894;DHT22;6006;49.696;8.662;2023-08-24T12:41:24;34.30;99.90
11894;DHT22;6006;49.696;8.662;2023-08-24T12:43:51;34.70;99.90
11894;DHT22;6006;49.696;8.662;2023-08-24T12:46:18;34.80;99.90
11894;DHT22;6006;49.696;8.662;2023-08-24T12:48:45;34.70;99.90
11894;DHT22;6006;49.696;8.662;2023-08-24T12:51:12;34.50;99.90
11894;DHT22;6006;49.696;8.662;2023-08-24T12:53:39;34.10;99.90
11894;DHT22;6006;49.696;8.662;2023-08-24T12:56:07;33.50;99.90
11894;DHT22;6006;49.696;8.662;2023-08-24T12:58:34;33.40;99.90
11894;DHT22;6006;49.696;8.662;2023-08-24T13:01:01;33.60;99.90
11894;DHT22;6006;49.696;8.662;2023-08-24T13:03:28;33.60;99.90
11894;DHT22;6006;49.696;8.662;2023-08-24T13:05:55;33.50;99.90
11894;DHT22;6006;49.696;8.662;2023-08-24T13:08:22;32.90;99.90
11894;DHT22;6006;49.696;8.662;2023-08-24T13:10:49;32.00;99.90
11894;DHT22;6006;49.696;8.662;2023-08-24T13:13:18;31.90;99.90
11894;DHT22;6006;49.696;8.662;2023-08-24T13:15:49;31.90;99.90
11894;DHT22;6006;49.696;8.662;2023-08-24T13:18:16;31.60;99.90
11894;DHT22;6006;49.696;8.662;2023-08-24T13:20:43;31.40;99.90
11894;DHT22;6006;49.696;8.662;2023-08-24T13:23:10;31.00;99.90
11894;DHT22;6006;49.696;8.662;2023-08-24T13:25:37;30.90;99.90
11894;DHT22;6006;49.696;8.662;2023-08-24T13:28:04;30.70;99.90
11894;DHT22;6006;49.696;8.662;2023-08-24T13:30:32;30.90;1.00
11894;DHT22;6006;49.696;8.662;2023-08-24T13:32:59;30.90;99.90
11894;DHT22;6006;49.696;8.662;2023-08-24T13:35:26;30.50;1.00
11894;DHT22;6006;49.696;8.662;2023-08-24T13:37:53;30.60;1.00
11894;DHT22;6006;49.696;8.662;2023-08-24T13:40:20;30.50;1.00
11894;DHT22;6006;49.696;8.662;2023-08-24T13:42:47;30.20;99.90
11894;DHT22;6006;49.696;8.662;2023-08-24T13:45:14;30.20;1.00
11894;DHT22;6006;49.696;8.662;2023-08-24T13:47:42;30.30;1.00
11894;DHT22;6006;49.696;8.662;2023-08-24T13:50:10;30.20;1.00
11894;DHT22;6006;49.696;8.662;2023-08-24T13:52:37;30.20;99.90
11894;DHT22;6006;49.696;8.662;2023-08-24T13:55:05;30.40;99.90
11894;DHT22;6006;49.696;8.662;2023-08-24T13:57:32;30.90;99.90
11894;DHT22;6006;49.696;8.662;2023-08-24T13:59:59;30.90;99.90
11894;DHT22;6006;49.696;8.662;2023-08-24T14:02:26;30.70;1.00
11894;DHT22;6006;49.696;8.662;2023-08-24T14:04:54;30.50;99.90
11894;DHT22;6006;49.696;8.662;2023-08-24T14:07:21;30.20;1.00
11894;DHT22;6006;49.696;8.662;2023-08-24T14:09:48;29.30;1.00
11894;DHT22;6006;49.696;8.662;2023-08-24T14:12:15;29.00;1.00
11894;DHT22;6006;49.696;8.662;2023-08-24T14:14:42;28.80;1.00
11894;DHT22;6006;49.696;8.662;2023-08-24T14:17:09;28.60;1.00
11894;DHT22;6006;49.696;8.662;2023-08-24T14:19:36;28.50;1.00
11894;DHT22;6006;49.696;8.662;2023-08-24T14:22:04;28.50;20.00
11894;DHT22;6006;49.696;8.662;2023-08-24T14:24:31;28.30;1.00
11894;DHT22;6006;49.696;8.662;2023-08-24T14:27:00;28.10;1.00
11894;DHT22;6006;49.696;8.662;2023-08-24T14:29:27;27.80;1.00
11894;DHT22;6006;49.696;8.662;2023-08-24T14:31:54;27.70;16.50
11894;DHT22;6006;49.696;8.662;2023-08-24T14:34:29;27.50;99.90
11894;DHT22;6006;49.696;8.662;2023-08-24T14:36:56;27.40;99.90
11894;DHT22;6006;49.696;8.662;2023-08-24T14:39:25;27.10;99.90
11894;DHT22;6006;49.696;8.662;2023-08-24T14:41:52;26.80;99.90
11894;DHT22;6006;49.696;8.662;2023-08-24T14:44:18;26.70;99.90
11894;DHT22;6006;49.696;8.662;2023-08-24T14:46:45;26.60;99.90
11894;DHT22;6006;49.696;8.662;2023-08-24T14:49:12;26.40;99.90
11894;DHT22;6006;49.696;8.662;2023-08-24T14:51:44;26.40;1.00
11894;DHT22;6006;49.696;8.662;2023-08-24T14:54:11;26.20;99.90
11894;DHT22;6006;49.696;8.662;2023-08-24T14:56:41;25.90;1.00
11894;DHT22;6006;49.696;8.662;2023-08-24T14:59:08;25.40;1.00
11894;DHT22;6006;49.696;8.662;2023-08-24T15:01:35;25.10;99.90
11894;DHT22;6006;49.696;8.662;2023-08-24T15:04:01;24.90;1.00
11894;DHT22;6006;49.696;8.662;2023-08-24T15:06:28;24.80;99.90
11894;DHT22;6006;49.696;8.662;2023-08-24T15:08:55;24.60;1.00
11894;DHT22;6006;49.696;8.662;2023-08-24T15:11:23;24.30;1.00
11894;DHT22;6006;49.696;8.662;2023-08-24T15:13:53;24.00;88.10
11894;DHT22;6006;49.696;8.662;2023-08-24T15:16:20;23.90;1.00
11894;DHT22;6006;49.696;8.662;2023-08-24T15:18:46;23.60;99.90
11894;DHT22;6006;49.696;8.662;2023-08-24T15:21:13;23.40;99.90
11894;DHT22;6006;49.696;8.662;2023-08-24T15:23:41;23.50;99.90
11894;DHT22;6006;49.696;8.662;2023-08-24T15:26:08;23.50;99.90
11894;DHT22;6006;49.696;8.662;2023-08-24T15:28:37;23.50;99.90
11894;DHT22;6006;49.696;8.662;2023-08-24T15:31:05;23.50;99.90
11894;DHT22;6006;49.696;8.662;2023-08-24T15:33:32;23.60;1.00
11894;DHT22;6006;49.696;8.662;2023-08-24T15:35:59;23.60;1.00
11894;DHT22;6006;49.696;8.662;2023-08-24T15:38:26;23.70;1.00
11894;DHT22;6006;49.696;8.662;2023-08-24T15:40:55;23.80;1.00
11894;DHT22;6006;49.696;8.662;2023-08-24T15:43:22;23.90;1.00
11894;DHT22;6006;49.696;8.662;2023-08-24T15:45:49;23.60;99.90
11894;DHT22;6006;49.696;8.662;2023-08-24T15:48:19;23.50;99.90
11894;DHT22;6006;49.696;8.662;2023-08-24T15:50:45;23.70;99.90
11894;DHT22;6006;49.696;8.662;2023-08-24T15:53:12;24.00;99.90
11894;DHT22;6006;49.696;8.662;2023-08-24T15:55:39;24.20;1.00